Time;durP1;ratioP1;P1;durP2;ratioP2;P2;SDS_P1;SDS_P2;PMS_P1;PMS_P2;Temp;Humidity;BMP_temperature;BMP_pressure;BME280_temperature;BME280_humidity;BME280_pressure;Samples;Min_cycle;Max_cycle;Signal;HPM_P1;HPM_P2
2023/06/02 00:02:00;;;;;;;4.53;3.53;;;21.80;36.20;;;;;;20675;6852;120562;-74
2023/06/02 00:04:27;;;;;;;3.67;3.47;;;21.90;36.20;;;;;;20564;6826;334969;-74
2023/06/02 00:06:53;;;;;;;3.33;3.13;;;21.90;36.20;;;;;;20781;6826;123101;-74
2023/06/02 00:09:18;;;;;;;3.50;3.20;;;21.70;36.40;;;;;;20774;6826;117002;-74
2023/06/02 00:11:43;;;;;;;3.60;3.30;;;21.50;36.70;;;;;;20554;6826;277277;-74
2023/06/02 00:14:10;;;;;;;5.03;3.53;;;21.80;36.30;;;;;;20555;6826;306664;-74
2023/06/02 00:16:41;;;;;;;4.10;3.80;;;21.80;36.20;;;;;;20561;6826;306988;-74
2023/06/02 00:19:07;;;;;;;3.47;3.20;;;22.10;36.20;;;;;;20708;6842;117128;-74
2023/06/02 00:21:36;;;;;;;3.07;2.83;;;21.50;36.80;;;;;;20687;6852;117460;-74
2023/06/02 00:23:58;;;;;;;3.47;3.17;;;21.40;36.70;;;;;;20743;6826;117133;-74
2023/06/02 00:26:25;;;;;;;3.77;3.40;;;21.10;37.40;;;;;;20561;6826;277762;-74
2023/06/02 00:28:51;;;;;;;3.47;3.23;;;21.20;37.90;;;;;;20771;6826;116917;-74
2023/06/02 00:31:15;;;;;;;4.20;3.80;;;21.10;37.70;;;;;;20501;6843;306074;-74
2023/06/02 00:33:42;;;;;;;5.57;3.27;;;21.00;38.20;;;;;;20719;6843;117697;-76
2023/06/02 00:36:07;;;;;;;3.10;2.90;;;20.90;37.70;;;;;;20596;6838;119407;-75
2023/06/02 00:38:33;;;;;;;3.80;3.60;;;20.60;38.00;;;;;;20558;6826;324307;-75
2023/06/02 00:40:58;;;;;;;3.78;3.47;;;20.70;38.20;;;;;;20780;6826;119280;-74
2023/06/02 00:43:24;;;;;;;3.63;3.33;;;20.60;38.00;;;;;;20716;6843;118504;-75
2023/06/02 00:45:50;;;;;;;4.05;3.83;;;20.50;38.20;;;;;;20465;6853;278924;-75
2023/06/02 00:48:16;;;;;;;3.97;3.67;;;20.50;38.20;;;;;;20767;6826;117173;-74
2023/06/02 00:50:41;;;;;;;4.07;3.77;;;20.40;37.90;;;;;;20693;6853;117967;-75
2023/06/02 00:53:07;;;;;;;4.23;3.93;;;20.20;37.70;;;;;;20554;6826;283530;-74
2023/06/02 00:55:33;;;;;;;4.57;4.20;;;20.20;37.70;;;;;;20715;6843;119320;-74
2023/06/02 00:57:59;;;;;;;3.90;3.57;;;20.10;37.90;;;;;;20697;6843;126995;-74
2023/06/02 01:00:25;;;;;;;3.83;3.43;;;19.80;38.30;;;;;;20688;6853;119903;-75
2023/06/02 01:02:50;;;;;;;3.83;3.57;;;19.60;38.90;;;;;;20772;6826;119717;-74
2023/06/02 01:05:15;;;;;;;4.30;4.00;;;19.40;39.30;;;;;;20511;6843;316077;-74
2023/06/02 01:07:44;;;;;;;3.87;3.67;;;19.70;39.90;;;;;;20727;6843;119731;-74
2023/06/02 01:10:06;;;;;;;3.53;3.30;;;19.70;39.60;;;;;;20688;6843;118095;-74
2023/06/02 01:12:32;;;;;;;4.30;4.00;;;19.50;39.80;;;;;;20480;6851;282365;-75
2023/06/02 01:14:58;;;;;;;3.75;3.55;;;19.70;40.20;;;;;;20769;6826;117792;-74
2023/06/02 01:17:24;;;;;;;4.03;3.73;;;19.60;40.10;;;;;;20723;6842;117366;-74
2023/06/02 01:19:49;;;;;;;3.67;3.37;;;19.40;40.30;;;;;;20686;6842;119345;-75
2023/06/02 01:22:15;;;;;;;4.07;3.87;;;19.00;40.90;;;;;;20720;6842;120008;-74
2023/06/02 01:24:41;;;;;;;4.50;4.10;;;19.00;40.80;;;;;;20498;6842;342023;-74
2023/06/02 01:27:07;;;;;;;4.30;4.03;;;19.70;41.30;;;;;;20471;6852;313117;-74
2023/06/02 01:29:35;;;;;;;4.40;4.10;;;19.70;41.10;;;;;;20560;6826;306564;-74
2023/06/02 01:32:00;;;;;;;4.00;3.65;;;19.80;40.40;;;;;;20738;6826;119456;-74
2023/06/02 01:34:24;;;;;;;4.30;4.00;;;19.70;40.30;;;;;;20509;6843;310053;-74
2023/06/02 01:36:50;;;;;;;4.17;3.87;;;19.80;40.70;;;;;;20669;6852;118115;-74
2023/06/02 01:39:16;;;;;;;3.83;3.53;;;19.60;40.70;;;;;;20752;6826;117796;-74
2023/06/02 01:41:42;;;;;;;4.47;4.07;;;19.30;41.30;;;;;;20506;6843;278259;-75
2023/06/02 01:44:09;;;;;;;4.50;4.10;;;19.30;41.30;;;;;;20354;6843;312643;-74
2023/06/02 01:46:34;;;;;;;4.43;4.07;;;19.60;40.80;;;;;;20692;6852;124357;-74
2023/06/02 01:49:00;;;;;;;4.20;3.90;;;19.50;40.80;;;;;;20773;6826;117085;-74
2023/06/02 01:51:26;;;;;;;3.87;3.67;;;19.10;41.00;;;;;;20730;6843;117170;-74
2023/06/02 01:53:51;;;;;;;5.03;4.00;;;18.90;41.40;;;;;;20508;6853;307581;-74
2023/06/02 01:56:17;;;;;;;4.57;4.17;;;19.00;40.90;;;;;;20780;6826;120449;-74
2023/06/02 01:58:43;;;;;;;4.45;4.15;;;18.80;41.60;;;;;;20731;6843;117126;-73
2023/06/02 02:01:08;;;;;;;4.13;3.90;;;18.80;41.00;;;;;;20717;6843;118104;-74
2023/06/02 02:03:37;;;;;;;5.17;4.00;;;18.60;41.10;;;;;;20695;6853;119182;-74
2023/06/02 02:06:01;;;;;;;5.37;4.62;;;18.40;41.10;;;;;;20494;6838;283050;-74
2023/06/02 02:08:26;;;;;;;4.87;4.47;;;18.70;41.20;;;;;;20774;6826;119782;-74
2023/06/02 02:10:51;;;;;;;4.82;4.53;;;18.70;40.50;;;;;;20509;6843;307187;-74
2023/06/02 02:13:17;;;;;;;5.10;4.65;;;18.90;39.60;;;;;;20511;6843;307251;-74
2023/06/02 02:15:43;;;;;;;4.50;4.17;;;19.20;39.10;;;;;;20717;6838;117261;-74
2023/06/02 02:18:09;;;;;;;4.80;4.40;;;19.10;38.90;;;;;;20555;6826;307427;-74
2023/06/02 02:20:34;;;;;;;4.53;4.23;;;19.10;38.80;;;;;;20773;6826;121005;-74
2023/06/02 02:23:01;;;;;;;5.33;4.77;;;19.10;38.70;;;;;;20464;6851;278475;-74
2023/06/02 02:25:26;;;;;;;4.10;3.80;;;19.00;38.60;;;;;;20782;6826;122762;-74
2023/06/02 02:27:53;;;;;;;4.93;4.43;;;18.70;40.00;;;;;;20706;6842;117374;-74
2023/06/02 02:30:18;;;;;;;4.47;4.17;;;18.60;39.50;;;;;;20738;6837;117267;-74
2023/06/02 02:32:44;;;;;;;4.70;4.30;;;18.40;39.80;;;;;;20777;6826;117145;-74
2023/06/02 02:35:09;;;;;;;4.37;4.07;;;18.20;40.10;;;;;;20764;6826;117310;-74
2023/06/02 02:37:38;;;;;;;4.22;3.92;;;18.00;40.20;;;;;;20773;6826;117001;-75
2023/06/02 02:40:05;;;;;;;5.37;4.90;;;18.20;39.90;;;;;;20534;6826;337343;-74
2023/06/02 02:42:30;;;;;;;4.87;4.50;;;18.20;39.50;;;;;;20721;6843;117558;-74
2023/06/02 02:44:55;;;;;;;5.13;4.70;;;18.30;39.60;;;;;;20474;6852;278554;-74
2023/06/02 02:47:21;;;;;;;5.12;4.72;;;18.50;39.50;;;;;;20567;6826;307093;-74
2023/06/02 02:49:47;;;;;;;4.60;4.20;;;18.80;39.60;;;;;;20764;6826;119338;-74
2023/06/02 02:52:12;;;;;;;4.80;4.40;;;18.70;39.90;;;;;;20562;6826;278364;-74
2023/06/02 02:54:38;;;;;;;4.80;4.40;;;18.80;40.00;;;;;;20512;6843;307678;-74
2023/06/02 02:57:04;;;;;;;4.60;4.17;;;19.00;39.90;;;;;;20504;6843;306781;-74
2023/06/02 02:59:31;;;;;;;4.13;3.93;;;19.20;40.00;;;;;;20690;6852;117081;-74
2023/06/02 03:01:54;;;;;;;4.90;4.60;;;18.90;40.20;;;;;;20535;6826;277087;-74
2023/06/02 03:04:24;;;;;;;4.30;4.00;;;18.60;40.40;;;;;;20726;6843;119555;-74
2023/06/02 03:06:49;;;;;;;4.40;4.20;;;18.60;40.50;;;;;;20723;6843;119983;-74
2023/06/02 03:09:15;;;;;;;4.93;4.63;;;18.30;41.00;;;;;;20475;6853;312506;-74
2023/06/02 03:11:41;;;;;;;5.17;4.87;;;18.30;40.80;;;;;;20560;6826;307813;-74
2023/06/02 03:14:07;;;;;;;6.27;4.67;;;18.40;40.50;;;;;;20746;6826;117203;-74
2023/06/02 03:16:34;;;;;;;4.63;4.33;;;18.40;40.40;;;;;;20695;6853;117606;-74
2023/06/02 03:18:59;;;;;;;4.93;4.53;;;17.70;41.10;;;;;;20765;6826;118182;-74
2023/06/02 03:21:26;;;;;;;5.10;4.73;;;17.70;41.10;;;;;;20773;6826;117107;-74
2023/06/02 03:23:50;;;;;;;5.03;4.73;;;17.50;41.40;;;;;;20530;6826;311488;-74
2023/06/02 03:26:15;;;;;;;5.60;5.20;;;17.70;41.20;;;;;;20507;6843;281488;-74
2023/06/02 03:28:42;;;;;;;7.13;4.73;;;18.10;40.30;;;;;;20693;6853;117174;-74
2023/06/02 03:31:06;;;;;;;4.87;4.50;;;18.00;40.40;;;;;;20768;6826;117083;-74
2023/06/02 03:33:32;;;;;;;5.27;4.83;;;17.80;40.80;;;;;;20561;6826;308179;-74
2023/06/02 03:35:57;;;;;;;5.65;5.22;;;17.90;40.40;;;;;;20545;6825;297311;-74
2023/06/02 03:38:23;;;;;;;5.17;4.77;;;18.10;39.80;;;;;;20724;6842;117430;-74
2023/06/02 03:40:49;;;;;;;5.32;4.82;;;18.00;40.20;;;;;;20693;6852;120075;-74
2023/06/02 03:43:14;;;;;;;5.13;4.73;;;17.70;40.60;;;;;;20778;6826;116977;-74
2023/06/02 03:45:40;;;;;;;4.97;4.63;;;17.50;41.10;;;;;;20774;6826;118042;-74
2023/06/02 03:48:05;;;;;;;5.13;4.57;;;17.40;41.50;;;;;;20710;6842;117633;-74
2023/06/02 03:50:31;;;;;;;5.60;5.20;;;17.20;41.70;;;;;;20486;6852;308863;-74
2023/06/02 03:52:57;;;;;;;5.53;5.13;;;17.60;41.20;;;;;;20771;6826;120857;-74
2023/06/02 03:55:24;;;;;;;5.30;4.80;;;17.50;41.10;;;;;;20775;6826;117031;-74
2023/06/02 03:57:49;;;;;;;5.23;4.80;;;17.30;42.20;;;;;;20752;6826;119704;-74
2023/06/02 04:00:15;;;;;;;5.90;5.50;;;17.20;41.80;;;;;;20557;6826;340830;-74
2023/06/02 04:02:40;;;;;;;5.50;4.93;;;17.60;41.50;;;;;;20776;6826;117133;-74
2023/06/02 04:05:06;;;;;;;5.72;5.32;;;17.70;41.60;;;;;;20553;6826;295899;-74
2023/06/02 04:07:32;;;;;;;5.93;5.47;;;18.40;40.50;;;;;;20559;6826;278062;-74
2023/06/02 04:09:58;;;;;;;5.95;5.47;;;18.40;40.50;;;;;;20535;6826;306998;-75
2023/06/02 04:12:23;;;;;;;6.00;5.50;;;18.70;40.00;;;;;;20505;6843;336711;-76
2023/06/02 04:14:49;;;;;;;4.80;4.50;;;18.90;39.20;;;;;;20710;6843;117679;-77
2023/06/02 04:17:15;;;;;;;6.12;5.72;;;18.90;40.10;;;;;;20481;6853;279153;-76
2023/06/02 04:19:41;;;;;;;7.80;4.90;;;18.90;39.90;;;;;;20773;6826;119685;-76
2023/06/02 04:22:06;;;;;;;4.70;4.40;;;18.80;40.20;;;;;;20747;6826;119681;-75
2023/06/02 04:24:32;;;;;;;6.10;5.50;;;18.50;40.60;;;;;;20562;6826;279294;-76
2023/06/02 04:26:57;;;;;;;7.07;5.33;;;18.70;40.40;;;;;;20768;6826;117100;-77
2023/06/02 04:29:24;;;;;;;6.05;5.60;;;18.70;40.50;;;;;;20566;6826;277082;-75
2023/06/02 04:31:51;;;;;;;6.07;5.57;;;19.10;40.70;;;;;;20536;6826;337322;-75
2023/06/02 04:34:16;;;;;;;5.40;4.93;;;19.10;40.00;;;;;;20692;6853;123135;-75
2023/06/02 04:36:42;;;;;;;5.40;4.90;;;19.00;40.20;;;;;;20768;6826;117538;-74
2023/06/02 04:39:07;;;;;;;6.20;5.80;;;18.80;40.70;;;;;;20565;6826;279466;-74
2023/06/02 04:41:33;;;;;;;7.10;6.40;;;19.00;40.50;;;;;;20509;6843;308586;-73
2023/06/02 04:44:00;;;;;;;5.43;4.93;;;19.30;39.80;;;;;;20667;6853;117656;-74
2023/06/02 04:46:26;;;;;;;11.20;5.80;;;19.20;40.20;;;;;;20779;6824;117101;-74
2023/06/02 04:48:55;;;;;;;6.50;6.00;;;19.10;40.80;;;;;;20560;6826;306972;-74
2023/06/02 04:51:27;;;;;;;5.60;5.20;;;19.10;40.80;;;;;;20774;6826;116998;-74
2023/06/02 04:53:53;;;;;;;5.67;5.37;;;19.10;41.00;;;;;;20749;6826;117460;-74
2023/06/02 04:56:18;;;;;;;6.68;6.20;;;18.90;41.30;;;;;;20560;6826;277975;-74
2023/06/02 04:58:44;;;;;;;6.60;6.00;;;19.10;41.00;;;;;;20776;6826;117509;-74
2023/06/02 05:01:10;;;;;;;7.10;6.50;;;19.10;41.00;;;;;;20509;6842;278090;-74
2023/06/02 05:03:36;;;;;;;6.53;5.93;;;19.30;40.70;;;;;;20529;6837;309590;-74
2023/06/02 05:06:02;;;;;;;7.47;6.78;;;19.60;40.60;;;;;;20528;6826;340530;-74
2023/06/02 05:08:27;;;;;;;7.60;7.07;;;19.90;40.00;;;;;;20557;6826;282439;-74
2023/06/02 05:10:54;;;;;;;7.45;6.90;;;20.10;39.80;;;;;;20557;6826;336491;-75
2023/06/02 05:13:20;;;;;;;6.50;6.10;;;20.10;39.80;;;;;;20762;6826;116959;-75
2023/06/02 05:15:45;;;;;;;6.62;6.12;;;19.80;40.30;;;;;;20540;6826;336055;-75
2023/06/02 05:18:14;;;;;;;7.30;6.70;;;19.80;40.70;;;;;;20710;6843;117516;-74
2023/06/02 05:20:36;;;;;;;7.40;6.80;;;19.70;40.80;;;;;;20494;6843;311926;-75
2023/06/02 05:23:02;;;;;;;7.75;7.07;;;19.80;41.60;;;;;;20500;6838;282320;-74
2023/06/02 05:25:28;;;;;;;7.50;6.90;;;20.00;40.20;;;;;;20527;6838;297969;-74
2023/06/02 05:27:55;;;;;;;6.68;6.18;;;20.00;40.40;;;;;;20720;6838;119953;-74
2023/06/02 05:30:20;;;;;;;7.65;7.05;;;20.00;39.90;;;;;;20523;6838;307748;-74
2023/06/02 05:32:46;;;;;;;6.80;6.20;;;19.90;40.30;;;;;;20742;6836;117666;-74
2023/06/02 05:35:12;;;;;;;6.90;6.30;;;19.50;41.70;;;;;;20742;6836;117528;-74
2023/06/02 05:37:38;;;;;;;7.95;7.35;;;19.50;41.30;;;;;;20535;6836;336326;-74
2023/06/02 05:40:04;;;;;;;8.00;7.37;;;19.70;41.40;;;;;;20517;6836;451187;-74
2023/06/02 05:42:29;;;;;;;8.13;7.53;;;20.00;40.60;;;;;;20525;6836;278934;-74
2023/06/02 05:44:55;;;;;;;6.80;6.30;;;20.00;40.60;;;;;;20745;6836;117157;-74
2023/06/02 05:47:21;;;;;;;8.13;7.43;;;20.00;40.60;;;;;;20526;6836;338065;-74
2023/06/02 05:49:47;;;;;;;7.87;7.20;;;20.10;40.80;;;;;;20521;6836;283818;-75
2023/06/02 05:52:12;;;;;;;7.03;6.43;;;20.30;40.50;;;;;;20744;6836;117374;-75
2023/06/02 05:54:38;;;;;;;7.12;6.53;;;20.20;40.70;;;;;;20744;6836;117623;-74
2023/06/02 05:57:03;;;;;;;7.93;7.20;;;20.00;41.10;;;;;;20533;6834;308543;-75
2023/06/02 05:59:29;;;;;;;7.80;7.30;;;20.20;40.90;;;;;;20526;6835;330624;-75
2023/06/02 06:01:55;;;;;;;8.25;6.80;;;20.60;40.50;;;;;;20729;6835;117224;-75
2023/06/02 06:04:20;;;;;;;8.18;7.57;;;20.60;40.40;;;;;;20527;6836;306141;-75
2023/06/02 06:06:46;;;;;;;7.20;6.60;;;20.70;39.80;;;;;;20748;6836;117463;-74
2023/06/02 06:09:11;;;;;;;7.23;6.53;;;20.70;40.00;;;;;;20748;6836;117195;-75
2023/06/02 06:11:38;;;;;;;7.97;7.37;;;20.90;40.20;;;;;;20524;6836;308340;-74
2023/06/02 06:14:07;;;;;;;8.20;7.33;;;20.90;40.20;;;;;;20723;6836;117782;-75
2023/06/02 06:16:30;;;;;;;6.12;5.68;;;21.40;40.50;;;;;;20737;6836;117368;-74
2023/06/02 06:18:56;;;;;;;7.33;6.73;;;21.60;40.70;;;;;;20746;6836;117125;-74
2023/06/02 06:21:22;;;;;;;8.43;7.82;;;22.00;40.90;;;;;;20537;6836;281474;-75
2023/06/02 06:23:47;;;;;;;9.00;8.38;;;22.80;37.70;;;;;;20502;6836;307620;-75
2023/06/02 06:26:12;;;;;;;8.68;7.78;;;23.60;36.70;;;;;;20537;6836;287391;-75
2023/06/02 06:28:39;;;;;;;7.57;6.87;;;24.50;35.60;;;;;;20748;6836;117147;-75
2023/06/02 06:31:04;;;;;;;7.77;7.27;;;24.80;36.20;;;;;;20734;6836;117210;-75
2023/06/02 06:33:31;;;;;;;8.80;8.10;;;25.40;34.20;;;;;;20530;6836;312377;-75
2023/06/02 06:35:56;;;;;;;8.57;7.83;;;25.30;34.20;;;;;;20510;6836;308146;-75
2023/06/02 06:38:22;;;;;;;8.67;7.97;;;26.00;33.10;;;;;;20535;6836;281098;-75
2023/06/02 06:40:47;;;;;;;8.73;8.02;;;26.60;32.30;;;;;;20523;6836;279642;-75
2023/06/02 06:43:15;;;;;;;7.70;6.97;;;27.00;31.80;;;;;;20741;6836;117249;-75
2023/06/02 06:45:40;;;;;;;8.90;8.18;;;26.90;32.70;;;;;;20511;6836;308076;-75
2023/06/02 06:48:06;;;;;;;8.70;7.90;;;27.10;31.90;;;;;;20510;6836;308138;-75
2023/06/02 06:50:31;;;;;;;8.37;7.70;;;27.50;31.40;;;;;;20740;6836;119333;-75
2023/06/02 06:52:56;;;;;;;7.90;7.30;;;27.50;32.10;;;;;;20743;6834;118048;-76
2023/06/02 06:55:24;;;;;;;9.10;7.65;;;27.20;32.50;;;;;;20745;6834;117890;-76
2023/06/02 06:57:49;;;;;;;7.93;7.03;;;27.10;33.10;;;;;;20738;6834;121121;-76
2023/06/02 07:00:16;;;;;;;7.37;6.80;;;27.10;33.20;;;;;;20750;6834;117830;-76
2023/06/02 07:02:43;;;;;;;9.50;8.60;;;27.20;33.10;;;;;;20486;6849;279435;-77
2023/06/02 07:05:11;;;;;;;9.20;8.50;;;27.60;30.80;;;;;;20463;6853;308973;-80
2023/06/02 07:07:37;;;;;;;7.90;7.40;;;28.00;29.90;;;;;;20691;6853;117496;-78
2023/06/02 07:10:03;;;;;;;8.90;8.10;;;27.80;30.20;;;;;;20458;6851;312689;-77
2023/06/02 07:12:28;;;;;;;8.27;7.63;;;27.80;30.30;;;;;;20753;6834;119437;-76
2023/06/02 07:14:54;;;;;;;11.02;7.37;;;27.60;30.60;;;;;;20755;6834;119746;-76
2023/06/02 07:17:19;;;;;;;9.20;8.50;;;27.30;31.20;;;;;;20488;6851;289454;-80
2023/06/02 07:19:45;;;;;;;8.23;7.47;;;27.30;30.90;;;;;;20684;6849;121421;-80
2023/06/02 07:22:10;;;;;;;8.30;7.47;;;27.10;31.20;;;;;;20746;6834;117305;-76
2023/06/02 07:24:36;;;;;;;8.80;8.10;;;26.80;31.80;;;;;;20544;6834;278135;-76
2023/06/02 07:27:03;;;;;;;9.63;8.83;;;26.90;31.90;;;;;;20487;6849;296162;-81
2023/06/02 07:29:27;;;;;;;9.40;8.60;;;27.00;31.30;;;;;;20537;6834;309879;-78
2023/06/02 07:31:53;;;;;;;8.63;7.83;;;27.10;30.80;;;;;;20727;6834;123618;-79
2023/06/02 07:34:20;;;;;;;9.40;8.60;;;26.90;31.10;;;;;;20535;6834;279022;-78
2023/06/02 07:36:47;;;;;;;9.60;8.70;;;26.90;31.30;;;;;;20539;6834;306780;-81
2023/06/02 07:39:12;;;;;;;9.60;8.80;;;26.90;31.10;;;;;;20518;6834;279146;-78
2023/06/02 07:41:37;;;;;;;10.18;9.23;;;26.90;31.10;;;;;;20539;6834;308251;-76
2023/06/02 07:44:03;;;;;;;8.80;8.10;;;26.90;31.20;;;;;;20738;6834;117696;-74
2023/06/02 07:46:30;;;;;;;8.40;7.27;;;26.30;32.50;;;;;;20742;6834;117337;-77
2023/06/02 07:48:57;;;;;;;9.27;8.40;;;26.30;32.40;;;;;;20755;6834;121129;-76
2023/06/02 07:51:23;;;;;;;8.67;7.93;;;26.10;32.70;;;;;;20748;6834;117649;-76
2023/06/02 07:53:49;;;;;;;9.43;8.70;;;25.90;33.00;;;;;;20524;6834;307408;-78
2023/06/02 07:56:14;;;;;;;8.67;7.97;;;26.10;32.90;;;;;;20748;6834;116907;-81
2023/06/02 07:58:40;;;;;;;9.07;7.70;;;26.10;32.90;;;;;;20746;6834;117324;-82
2023/06/02 08:01:06;;;;;;;8.83;8.00;;;25.90;34.20;;;;;;20753;6834;119870;-81
2023/06/02 08:03:33;;;;;;;9.93;9.00;;;25.90;33.40;;;;;;20525;6834;278390;-80
2023/06/02 08:05:58;;;;;;;9.65;8.85;;;26.20;32.80;;;;;;20523;6834;338394;-76
2023/06/02 08:08:24;;;;;;;9.70;9.00;;;26.50;32.60;;;;;;20529;6834;307645;-76
2023/06/02 08:10:51;;;;;;;9.23;8.50;;;26.70;32.10;;;;;;20757;6834;123553;-79
2023/06/02 08:13:17;;;;;;;10.52;9.52;;;26.70;32.10;;;;;;20544;6834;306935;-77
2023/06/02 08:15:43;;;;;;;9.93;8.90;;;26.90;33.20;;;;;;20534;6834;282425;-78
2023/06/02 08:18:13;;;;;;;10.20;9.20;;;26.90;33.20;;;;;;20515;6834;308184;-80
2023/06/02 08:20:38;;;;;;;9.50;8.70;;;27.00;32.00;;;;;;20727;6833;117838;-78
2023/06/02 08:23:04;;;;;;;9.73;8.93;;;27.00;32.00;;;;;;20534;6834;307797;-78
2023/06/02 08:25:31;;;;;;;10.37;9.37;;;27.00;32.00;;;;;;20542;6834;309799;-80
2023/06/02 08:27:57;;;;;;;9.00;8.40;;;27.20;32.20;;;;;;20516;6834;307989;-78
2023/06/02 08:30:22;;;;;;;10.80;9.90;;;27.40;32.50;;;;;;20542;6834;281414;-79
2023/06/02 08:32:48;;;;;;;9.50;8.55;;;27.50;31.70;;;;;;20750;6834;117872;-78
2023/06/02 08:35:14;;;;;;;8.57;7.60;;;27.50;31.70;;;;;;20759;6834;118345;-81
2023/06/02 08:37:40;;;;;;;10.30;9.40;;;27.40;31.90;;;;;;20493;6849;282450;-85
2023/06/02 08:40:08;;;;;;;8.93;8.30;;;27.40;31.60;;;;;;20738;6834;118449;-83
2023/06/02 08:42:34;;;;;;;9.87;8.77;;;27.20;31.50;;;;;;20730;6842;117184;-87
2023/06/02 08:44:59;;;;;;;8.33;7.63;;;26.90;32.00;;;;;;20705;6848;120439;-86
2023/06/02 08:47:25;;;;;;;8.03;7.33;;;26.80;32.30;;;;;;20705;6848;117660;-81
2023/06/02 08:49:50;;;;;;;8.47;7.67;;;26.80;33.20;;;;;;20677;6848;120081;-81
2023/06/02 08:52:23;;;;;;;8.48;7.87;;;26.90;33.30;;;;;;20712;6848;117323;-85
2023/06/02 08:54:50;;;;;;;8.93;8.00;;;27.00;32.90;;;;;;20697;6848;118977;-86
2023/06/02 08:57:22;;;;;;;9.70;8.80;;;26.90;32.70;;;;;;20491;6848;308160;-80
2023/06/02 08:59:42;;;;;;;9.30;8.40;;;27.30;32.40;;;;;;20452;6851;308745;-83
2023/06/02 09:02:08;;;;;;;10.23;7.87;;;27.70;31.90;;;;;;20722;6834;117870;-81
2023/06/02 09:04:33;;;;;;;9.93;8.47;;;27.80;31.70;;;;;;20763;6834;117555;-82
2023/06/02 09:07:12;;;;;;;8.97;8.17;;;27.70;31.60;;;;;;20751;6834;117444;-83
2023/06/02 09:09:37;;;;;;;10.20;9.40;;;27.60;31.70;;;;;;20321;6849;278285;-82
2023/06/02 09:12:03;;;;;;;8.67;7.93;;;27.90;30.70;;;;;;20692;6843;117491;-80
2023/06/02 09:14:29;;;;;;;8.60;7.90;;;28.00;31.00;;;;;;20497;6848;283108;-79
2023/06/02 09:16:55;;;;;;;9.05;8.25;;;28.30;30.20;;;;;;20489;6848;338959;-79
2023/06/02 09:19:21;;;;;;;8.17;7.47;;;28.30;30.20;;;;;;20702;6848;119446;-81
2023/06/02 09:21:48;;;;;;;9.73;8.10;;;28.30;30.30;;;;;;20478;6841;337195;-81
2023/06/02 09:24:15;;;;;;;10.00;8.40;;;28.50;31.30;;;;;;20724;6841;117513;-82
2023/06/02 09:26:49;;;;;;;9.47;7.87;;;28.50;31.00;;;;;;20577;6834;117433;-85
2023/06/02 09:29:15;;;;;;;9.43;8.70;;;28.40;31.20;;;;;;20540;6834;283641;-75
2023/06/02 09:31:52;;;;;;;8.97;8.13;;;28.60;30.10;;;;;;20497;6833;313045;-81
2023/06/02 09:34:18;;;;;;;9.60;8.80;;;29.10;29.40;;;;;;20465;6850;294040;-83
2023/06/02 09:36:52;;;;;;;9.98;8.20;;;29.30;29.80;;;;;;20479;6834;313778;-86
2023/06/02 09:39:46;;;;;;;8.13;7.47;;;29.10;29.80;;;;;;20693;6842;117532;-79
2023/06/02 09:42:10;;;;;;;8.40;7.60;;;29.10;29.70;;;;;;20675;6847;117251;-82
2023/06/02 09:44:35;;;;;;;7.17;6.73;;;28.80;29.90;;;;;;20704;6848;117096;-82
2023/06/02 09:47:05;;;;;;;9.18;8.32;;;28.60;30.00;;;;;;20480;6851;337378;-86
2023/06/02 09:49:38;;;;;;;8.67;7.80;;;28.80;30.20;;;;;;20752;6834;120704;-85
2023/06/02 09:52:16;;;;;;;8.47;7.70;;;28.80;30.50;;;;;;20733;6834;117979;-82
2023/06/02 09:54:42;;;;;;;7.93;7.23;;;28.80;30.40;;;;;;20747;6834;117514;-84
2023/06/02 09:57:07;;;;;;;9.20;8.40;;;28.60;30.10;;;;;;20550;6834;339149;-87
2023/06/02 09:59:34;;;;;;;8.00;6.97;;;28.60;29.60;;;;;;20755;6834;116261;-87
2023/06/02 10:02:00;;;;;;;9.18;8.48;;;28.60;29.60;;;;;;20534;6834;281452;-84
2023/06/02 10:04:26;;;;;;;8.40;7.80;;;28.60;29.50;;;;;;20486;6849;311626;-87
2023/06/02 10:06:54;;;;;;;8.40;7.80;;;28.70;29.70;;;;;;20539;6834;277761;-79
2023/06/02 10:09:37;;;;;;;8.97;7.93;;;28.90;30.00;;;;;;20486;6849;308392;-84
2023/06/02 10:12:02;;;;;;;8.50;7.80;;;28.90;30.00;;;;;;20648;6849;117442;-83
2023/06/02 10:14:47;;;;;;;8.33;7.53;;;28.60;29.60;;;;;;20514;6834;290075;-82
2023/06/02 10:17:31;;;;;;;10.57;7.53;;;28.60;29.60;;;;;;20713;6834;117852;-79
2023/06/02 10:20:06;;;;;;;8.47;7.50;;;28.30;29.60;;;;;;20740;6834;124753;-80
2023/06/02 10:22:47;;;;;;;8.37;7.33;;;28.00;30.00;;;;;;20734;6834;117831;-83
2023/06/02 10:25:21;;;;;;;7.75;7.12;;;27.70;30.10;;;;;;20530;6834;307180;-84
2023/06/02 10:27:48;;;;;;;8.57;7.82;;;27.90;31.40;;;;;;20519;6834;306734;-90
2023/06/02 10:30:17;;;;;;;7.63;7.13;;;28.50;30.50;;;;;;20751;6834;117450;-80
2023/06/02 10:32:43;;;;;;;7.93;7.33;;;28.50;30.50;;;;;;20749;6834;117500;-85
2023/06/02 10:35:09;;;;;;;8.05;7.45;;;28.50;30.30;;;;;;20528;6834;307673;-83
2023/06/02 10:37:37;;;;;;;7.97;7.00;;;28.60;29.80;;;;;;20758;6834;117192;-81
2023/06/02 10:40:00;;;;;;;8.30;7.60;;;28.60;29.80;;;;;;20522;6834;336308;-82
2023/06/02 10:42:26;;;;;;;9.30;6.75;;;28.70;29.60;;;;;;20570;6834;306842;-78
2023/06/02 10:44:52;;;;;;;6.30;5.83;;;28.90;29.30;;;;;;20758;6833;117140;-88
2023/06/02 10:47:18;;;;;;;8.25;7.55;;;29.10;29.00;;;;;;20541;6834;311404;-86
2023/06/02 10:49:53;;;;;;;7.30;6.80;;;29.10;29.00;;;;;;20753;6834;117243;-80
2023/06/02 10:52:19;;;;;;;7.95;7.43;;;29.00;29.30;;;;;;20528;6834;336730;-86
2023/06/02 10:54:44;;;;;;;7.65;7.05;;;29.00;29.30;;;;;;20542;6834;278255;-84
2023/06/02 10:57:12;;;;;;;8.10;6.80;;;29.40;30.00;;;;;;20543;6834;278012;-83
2023/06/02 10:59:37;;;;;;;8.03;7.23;;;29.30;29.40;;;;;;20540;6834;307775;-82
2023/06/02 11:02:03;;;;;;;7.68;7.00;;;29.60;29.10;;;;;;20472;6848;308298;-82
2023/06/02 11:04:35;;;;;;;7.83;7.00;;;29.60;28.40;;;;;;20537;6834;277914;-80
2023/06/02 11:07:29;;;;;;;6.73;6.33;;;29.50;28.60;;;;;;20724;6842;117169;-84
2023/06/02 11:09:56;;;;;;;7.33;6.77;;;29.30;28.80;;;;;;20711;6842;117972;-84
2023/06/02 11:12:51;;;;;;;6.33;5.87;;;28.80;28.90;;;;;;20717;6848;117527;-81
2023/06/02 11:15:19;;;;;;;6.87;6.47;;;28.10;28.90;;;;;;20740;6841;119506;-83
2023/06/02 11:17:47;;;;;;;7.13;6.60;;;28.10;29.00;;;;;;20525;6841;278490;-80
2023/06/02 11:20:10;;;;;;;7.13;6.63;;;28.20;29.60;;;;;;20578;6841;117342;-79
2023/06/02 11:22:36;;;;;;;6.82;6.22;;;28.30;29.50;;;;;;20740;6841;117651;-80
2023/06/02 11:25:02;;;;;;;9.25;5.78;;;28.10;29.30;;;;;;20754;6836;117245;-79
2023/06/02 11:27:44;;;;;;;7.05;6.10;;;28.10;29.80;;;;;;20527;6836;308448;-78
2023/06/02 11:30:17;;;;;;;9.80;5.90;;;28.40;29.40;;;;;;20744;6836;117374;-78
2023/06/02 11:32:43;;;;;;;6.90;6.30;;;28.40;29.40;;;;;;20733;6836;117607;-79
2023/06/02 11:35:09;;;;;;;7.18;6.65;;;28.30;29.40;;;;;;20527;6836;308068;-82
2023/06/02 11:37:36;;;;;;;7.20;5.87;;;28.50;29.60;;;;;;20733;6836;117616;-79
2023/06/02 11:40:01;;;;;;;6.57;6.10;;;28.50;29.50;;;;;;20481;6836;313246;-78
2023/06/02 11:42:34;;;;;;;7.03;6.33;;;28.60;28.70;;;;;;20535;6836;278884;-81
2023/06/02 11:44:59;;;;;;;6.07;5.57;;;28.70;28.80;;;;;;20736;6836;121131;-80
2023/06/02 11:47:25;;;;;;;6.63;6.17;;;28.60;28.90;;;;;;20740;6836;123161;-75
2023/06/02 11:49:51;;;;;;;7.00;6.50;;;28.40;29.00;;;;;;20509;6836;279350;-75
2023/06/02 11:52:17;;;;;;;6.40;6.00;;;28.60;29.10;;;;;;20528;6836;308769;-75
2023/06/02 11:54:54;;;;;;;6.60;6.00;;;28.80;28.70;;;;;;20517;6836;337634;-76
2023/06/02 11:57:32;;;;;;;5.97;5.00;;;28.80;28.60;;;;;;20746;6835;119965;-75
2023/06/02 12:00:21;;;;;;;6.00;5.60;;;28.70;28.80;;;;;;20498;6835;326026;-76
2023/06/02 12:02:38;;;;;;;6.25;5.75;;;28.80;28.10;;;;;;20414;6836;301417;-75
2023/06/02 12:05:03;;;;;;;5.60;5.20;;;28.90;28.10;;;;;;20705;6836;117261;-75
2023/06/02 12:07:28;;;;;;;6.70;6.10;;;28.80;28.00;;;;;;20516;6836;309536;-76
2023/06/02 12:09:55;;;;;;;5.73;5.33;;;28.70;28.00;;;;;;20688;6836;117263;-76
2023/06/02 12:12:21;;;;;;;6.90;6.20;;;28.50;28.40;;;;;;20505;6836;279370;-76
2023/06/02 12:14:47;;;;;;;6.97;6.37;;;28.70;29.10;;;;;;20527;6836;336788;-77
2023/06/02 12:17:13;;;;;;;5.90;5.50;;;28.70;29.10;;;;;;20736;6836;119759;-77
2023/06/02 12:19:42;;;;;;;7.27;5.53;;;28.70;28.90;;;;;;20526;6836;308511;-78
2023/06/02 12:22:17;;;;;;;5.80;5.30;;;28.70;28.90;;;;;;20526;6836;279408;-77
2023/06/02 12:24:33;;;;;;;5.70;5.20;;;28.90;29.30;;;;;;20449;6836;309658;-76
2023/06/02 12:26:58;;;;;;;5.57;5.17;;;29.10;29.00;;;;;;20721;6836;117103;-75
2023/06/02 12:29:24;;;;;;;5.78;5.37;;;29.10;28.60;;;;;;20746;6836;118363;-75
2023/06/02 12:32:06;;;;;;;5.97;5.50;;;28.70;28.30;;;;;;20690;6836;120264;-75
2023/06/02 12:34:32;;;;;;;5.60;5.10;;;28.40;28.70;;;;;;20698;6836;117583;-76